sensor_id;sensor_type;location;lat;lon;timestamp;temperature;humidity
4376;DHT22;2202;50.866;12.750;2024-03-02T00:00:32;6.70;98.90
4376;DHT22;2202;50.866;12.750;2024-03-02T00:02:59;6.70;99.10
4376;DHT22;2202;50.866;12.750;2024-03-02T00:05:26;6.70;98.90
4376;DHT22;2202;50.866;12.750;2024-03-02T00:07:54;6.80;98.90
4376;DHT22;2202;50.866;12.750;2024-03-02T00:10:22;6.80;98.70
4376;DHT22;2202;50.866;12.750;2024-03-02T00:12:55;6.80;98.70
4376;DHT22;2202;50.866;12.750;2024-03-02T00:15:40;6.90;98.70
4376;DHT22;2202;50.866;12.750;2024-03-02T00:18:08;6.90;98.40
4376;DHT22;2202;50.866;12.750;2024-03-02T00:20:35;7.00;98.20
4376;DHT22;2202;50.866;12.750;2024-03-02T00:23:03;7.00;98.10
4376;DHT22;2202;50.866;12.750;2024-03-02T00:25:37;7.00;97.90
4376;DHT22;2202;50.866;12.750;2024-03-02T00:28:04;7.00;97.90
4376;DHT22;2202;50.866;12.750;2024-03-02T00:30:57;7.00;97.80
4376;DHT22;2202;50.866;12.750;2024-03-02T00:33:27;7.00;97.70
4376;DHT22;2202;50.866;12.750;2024-03-02T00:35:55;7.00;97.60
4376;DHT22;2202;50.866;12.750;2024-03-02T00:38:22;7.10;97.50
4376;DHT22;2202;50.866;12.750;2024-03-02T00:40:49;7.10;97.30
4376;DHT22;2202;50.866;12.750;2024-03-02T00:43:41;7.00;97.50
4376;DHT22;2202;50.866;12.750;2024-03-02T00:46:11;7.00;97.50
4376;DHT22;2202;50.866;12.750;2024-03-02T00:48:38;7.00;97.30
4376;DHT22;2202;50.866;12.750;2024-03-02T00:51:06;6.90;97.70
4376;DHT22;2202;50.866;12.750;2024-03-02T00:53:33;6.90;97.80
4376;DHT22;2202;50.866;12.750;2024-03-02T00:56:01;6.90;97.70
4376;DHT22;2202;50.866;12.750;2024-03-02T00:58:28;6.90;97.70
4376;DHT22;2202;50.866;12.750;2024-03-02T01:00:55;7.00;97.60
4376;DHT22;2202;50.866;12.750;2024-03-02T01:03:24;6.80;97.70
4376;DHT22;2202;50.866;12.750;2024-03-02T01:05:51;6.80;97.90
4376;DHT22;2202;50.866;12.750;2024-03-02T01:08:18;6.80;98.10
4376;DHT22;2202;50.866;12.750;2024-03-02T01:10:45;6.80;98.00
4376;DHT22;2202;50.866;12.750;2024-03-02T01:13:13;6.90;97.90
4376;DHT22;2202;50.866;12.750;2024-03-02T01:15:40;6.90;97.80
4376;DHT22;2202;50.866;12.750;2024-03-02T01:18:07;6.90;97.80
4376;DHT22;2202;50.866;12.750;2024-03-02T01:20:35;6.90;97.80
4376;DHT22;2202;50.866;12.750;2024-03-02T01:23:03;6.90;97.70
4376;DHT22;2202;50.866;12.750;2024-03-02T01:25:30;7.00;97.60
4376;DHT22;2202;50.866;12.750;2024-03-02T01:27:56;7.00;97.60
4376;DHT22;2202;50.866;12.750;2024-03-02T01:30:23;7.00;97.60
4376;DHT22;2202;50.866;12.750;2024-03-02T01:32:50;7.00;97.50
4376;DHT22;2202;50.866;12.750;2024-03-02T01:35:16;7.00;97.50
4376;DHT22;2202;50.866;12.750;2024-03-02T01:37:45;7.00;97.50
4376;DHT22;2202;50.866;12.750;2024-03-02T01:40:12;7.00;97.60
4376;DHT22;2202;50.866;12.750;2024-03-02T01:42:39;6.90;97.70
4376;DHT22;2202;50.866;12.750;2024-03-02T01:45:08;6.90;97.90
4376;DHT22;2202;50.866;12.750;2024-03-02T01:47:35;6.90;98.00
4376;DHT22;2202;50.866;12.750;2024-03-02T01:50:02;7.00;97.90
4376;DHT22;2202;50.866;12.750;2024-03-02T01:52:29;7.00;97.90
4376;DHT22;2202;50.866;12.750;2024-03-02T01:54:57;7.00;98.00
4376;DHT22;2202;50.866;12.750;2024-03-02T01:57:24;7.00;98.00
4376;DHT22;2202;50.866;12.750;2024-03-02T01:59:51;7.00;98.00
4376;DHT22;2202;50.866;12.750;2024-03-02T02:02:18;7.00;97.90
4376;DHT22;2202;50.866;12.750;2024-03-02T02:04:46;7.10;97.90
4376;DHT22;2202;50.866;12.750;2024-03-02T02:07:13;7.00;98.00
4376;DHT22;2202;50.866;12.750;2024-03-02T02:09:41;7.00;98.10
4376;DHT22;2202;50.866;12.750;2024-03-02T02:12:09;7.00;98.10
4376;DHT22;2202;50.866;12.750;2024-03-02T02:14:37;7.10;98.10
4376;DHT22;2202;50.866;12.750;2024-03-02T02:17:05;7.10;98.00
4376;DHT22;2202;50.866;12.750;2024-03-02T02:19:32;7.10;97.90
4376;DHT22;2202;50.866;12.750;2024-03-02T02:22:00;7.00;98.00
4376;DHT22;2202;50.866;12.750;2024-03-02T02:24:27;7.00;98.10
4376;DHT22;2202;50.866;12.750;2024-03-02T02:26:54;7.00;98.10
4376;DHT22;2202;50.866;12.750;2024-03-02T02:29:21;6.90;98.30
4376;DHT22;2202;50.866;12.750;2024-03-02T02:31:47;7.00;98.30
4376;DHT22;2202;50.866;12.750;2024-03-02T02:34:14;7.00;98.20
4376;DHT22;2202;50.866;12.750;2024-03-02T02:36:41;7.00;98.10
4376;DHT22;2202;50.866;12.750;2024-03-02T02:39:12;7.00;98.10
4376;DHT22;2202;50.866;12.750;2024-03-02T02:41:40;7.00;98.10
4376;DHT22;2202;50.866;12.750;2024-03-02T02:44:07;7.00;98.10
4376;DHT22;2202;50.866;12.750;2024-03-02T02:46:34;7.00;98.00
4376;DHT22;2202;50.866;12.750;2024-03-02T02:49:01;7.00;98.00
4376;DHT22;2202;50.866;12.750;2024-03-02T02:51:28;7.10;97.90
4376;DHT22;2202;50.866;12.750;2024-03-02T02:53:54;7.10;97.80
4376;DHT22;2202;50.866;12.750;2024-03-02T02:56:23;7.10;97.60
4376;DHT22;2202;50.866;12.750;2024-03-02T02:58:49;7.10;97.70
4376;DHT22;2202;50.866;12.750;2024-03-02T03:01:17;7.10;97.70
4376;DHT22;2202;50.866;12.750;2024-03-02T03:03:44;7.10;97.60
4376;DHT22;2202;50.866;12.750;2024-03-02T03:06:11;7.10;97.60
4376;DHT22;2202;50.866;12.750;2024-03-02T03:08:37;7.00;97.70
4376;DHT22;2202;50.866;12.750;2024-03-02T03:11:04;7.00;97.80
4376;DHT22;2202;50.866;12.750;2024-03-02T03:13:33;6.90;97.90
4376;DHT22;2202;50.866;12.750;2024-03-02T03:16:00;6.90;98.00
4376;DHT22;2202;50.866;12.750;2024-03-02T03:18:27;7.00;98.00
4376;DHT22;2202;50.866;12.750;2024-03-02T03:20:54;7.00;97.90
4376;DHT22;2202;50.866;12.750;2024-03-02T03:23:21;6.90;98.00
4376;DHT22;2202;50.866;12.750;2024-03-02T03:25:47;6.80;98.30
4376;DHT22;2202;50.866;12.750;2024-03-02T03:28:15;6.70;98.50
4376;DHT22;2202;50.866;12.750;2024-03-02T03:30:43;6.70;98.80
4376;DHT22;2202;50.866;12.750;2024-03-02T03:33:10;6.70;99.00
4376;DHT22;2202;50.866;12.750;2024-03-02T03:35:37;6.80;98.80
4376;DHT22;2202;50.866;12.750;2024-03-02T03:38:04;6.80;98.70
4376;DHT22;2202;50.866;12.750;2024-03-02T03:40:30;6.80;98.70
4376;DHT22;2202;50.866;12.750;2024-03-02T03:42:57;6.70;98.70
4376;DHT22;2202;50.866;12.750;2024-03-02T03:45:25;6.70;98.80
4376;DHT22;2202;50.866;12.750;2024-03-02T03:47:54;6.60;99.10
4376;DHT22;2202;50.866;12.750;2024-03-02T03:50:21;6.70;99.00
4376;DHT22;2202;50.866;12.750;2024-03-02T03:52:48;6.70;99.00
4376;DHT22;2202;50.866;12.750;2024-03-02T03:55:15;6.70;98.90
4376;DHT22;2202;50.866;12.750;2024-03-02T03:57:42;6.80;98.90
4376;DHT22;2202;50.866;12.750;2024-03-02T04:00:09;6.80;98.80
4376;DHT22;2202;50.866;12.750;2024-03-02T04:02:37;6.90;98.60
4376;DHT22;2202;50.866;12.750;2024-03-02T04:05:06;6.90;98.40
4376;DHT22;2202;50.866;12.750;2024-03-02T04:07:35;6.90;98.30
4376;DHT22;2202;50.866;12.750;2024-03-02T04:10:07;7.00;98.20
4376;DHT22;2202;50.866;12.750;2024-03-02T04:12:35;6.90;98.00
4376;DHT22;2202;50.866;12.750;2024-03-02T04:15:03;6.90;98.10
4376;DHT22;2202;50.866;12.750;2024-03-02T04:17:31;6.80;98.20
4376;DHT22;2202;50.866;12.750;2024-03-02T04:19:59;6.80;98.40
4376;DHT22;2202;50.866;12.750;2024-03-02T04:22:27;6.80;98.40
4376;DHT22;2202;50.866;12.750;2024-03-02T04:24:54;6.90;98.30
4376;DHT22;2202;50.866;12.750;2024-03-02T04:27:21;6.90;98.20
4376;DHT22;2202;50.866;12.750;2024-03-02T04:29:48;6.90;98.10
4376;DHT22;2202;50.866;12.750;2024-03-02T04:32:15;6.90;98.00
4376;DHT22;2202;50.866;12.750;2024-03-02T04:34:42;6.80;98.20
4376;DHT22;2202;50.866;12.750;2024-03-02T04:37:11;6.80;98.10
4376;DHT22;2202;50.866;12.750;2024-03-02T04:39:41;6.80;98.00
4376;DHT22;2202;50.866;12.750;2024-03-02T04:42:08;6.80;98.10
4376;DHT22;2202;50.866;12.750;2024-03-02T04:44:34;6.90;98.00
4376;DHT22;2202;50.866;12.750;2024-03-02T04:47:02;6.90;97.90
4376;DHT22;2202;50.866;12.750;2024-03-02T04:49:29;6.90;97.80
4376;DHT22;2202;50.866;12.750;2024-03-02T04:51:56;6.90;97.70
4376;DHT22;2202;50.866;12.750;2024-03-02T04:54:23;7.00;97.70
4376;DHT22;2202;50.866;12.750;2024-03-02T04:56:52;6.90;97.70
4376;DHT22;2202;50.866;12.750;2024-03-02T04:59:19;6.90;97.70
4376;DHT22;2202;50.866;12.750;2024-03-02T05:01:46;7.00;97.60
4376;DHT22;2202;50.866;12.750;2024-03-02T05:04:13;7.00;97.60
4376;DHT22;2202;50.866;12.750;2024-03-02T05:06:40;7.00;97.60
4376;DHT22;2202;50.866;12.750;2024-03-02T05:09:07;7.00;97.60
4376;DHT22;2202;50.866;12.750;2024-03-02T05:11:34;7.00;97.60
4376;DHT22;2202;50.866;12.750;2024-03-02T05:14:38;7.00;97.50
4376;DHT22;2202;50.866;12.750;2024-03-02T05:17:05;6.90;97.30
4376;DHT22;2202;50.866;12.750;2024-03-02T05:19:32;6.90;97.60
4376;DHT22;2202;50.866;12.750;2024-03-02T05:21:59;6.90;97.70
4376;DHT22;2202;50.866;12.750;2024-03-02T05:24:26;6.90;97.80
4376;DHT22;2202;50.866;12.750;2024-03-02T05:26:54;6.90;97.70
4376;DHT22;2202;50.866;12.750;2024-03-02T05:29:21;6.90;97.90
4376;DHT22;2202;50.866;12.750;2024-03-02T05:31:49;6.90;97.90
4376;DHT22;2202;50.866;12.750;2024-03-02T05:34:16;6.90;97.70
4376;DHT22;2202;50.866;12.750;2024-03-02T05:36:44;6.90;97.80
4376;DHT22;2202;50.866;12.750;2024-03-02T05:39:10;6.90;97.90
4376;DHT22;2202;50.866;12.750;2024-03-02T05:41:37;6.90;97.90
4376;DHT22;2202;50.866;12.750;2024-03-02T05:44:04;6.90;97.80
4376;DHT22;2202;50.866;12.750;2024-03-02T05:46:32;6.90;97.80
4376;DHT22;2202;50.866;12.750;2024-03-02T05:49:00;6.90;97.70
4376;DHT22;2202;50.866;12.750;2024-03-02T05:51:27;6.90;97.80
4376;DHT22;2202;50.866;12.750;2024-03-02T05:53:54;6.90;97.80
4376;DHT22;2202;50.866;12.750;2024-03-02T05:56:21;6.90;97.60
4376;DHT22;2202;50.866;12.750;2024-03-02T05:58:48;6.80;97.50
4376;DHT22;2202;50.866;12.750;2024-03-02T06:01:26;6.80;97.60
4376;DHT22;2202;50.866;12.750;2024-03-02T06:03:55;6.80;97.60
4376;DHT22;2202;50.866;12.750;2024-03-02T06:06:24;6.80;97.40
4376;DHT22;2202;50.866;12.750;2024-03-02T06:08:51;6.80;97.60
4376;DHT22;2202;50.866;12.750;2024-03-02T06:11:19;6.80;97.40
4376;DHT22;2202;50.866;12.750;2024-03-02T06:13:46;6.80;97.40
4376;DHT22;2202;50.866;12.750;2024-03-02T06:16:13;6.80;97.40
4376;DHT22;2202;50.866;12.750;2024-03-02T06:18:39;6.80;97.40
4376;DHT22;2202;50.866;12.750;2024-03-02T06:21:06;6.80;97.20
4376;DHT22;2202;50.866;12.750;2024-03-02T06:23:35;6.90;97.20
4376;DHT22;2202;50.866;12.750;2024-03-02T06:26:02;6.90;97.10
4376;DHT22;2202;50.866;12.750;2024-03-02T06:28:29;6.90;96.90
4376;DHT22;2202;50.866;12.750;2024-03-02T06:30:56;6.90;96.90
4376;DHT22;2202;50.866;12.750;2024-03-02T06:33:23;7.00;96.80
4376;DHT22;2202;50.866;12.750;2024-03-02T06:35:50;7.00;96.80
4376;DHT22;2202;50.866;12.750;2024-03-02T06:38:17;7.00;96.60
4376;DHT22;2202;50.866;12.750;2024-03-02T06:40:46;7.10;96.50
4376;DHT22;2202;50.866;12.750;2024-03-02T06:43:13;7.10;96.40
4376;DHT22;2202;50.866;12.750;2024-03-02T06:45:42;7.20;96.30
4376;DHT22;2202;50.866;12.750;2024-03-02T06:48:09;7.20;96.20
4376;DHT22;2202;50.866;12.750;2024-03-02T06:50:36;7.20;96.10
4376;DHT22;2202;50.866;12.750;2024-03-02T06:53:03;7.20;96.20
4376;DHT22;2202;50.866;12.750;2024-03-02T06:55:30;7.30;96.10
4376;DHT22;2202;50.866;12.750;2024-03-02T06:57:59;7.30;96.10
4376;DHT22;2202;50.866;12.750;2024-03-02T07:00:26;7.30;96.00
4376;DHT22;2202;50.866;12.750;2024-03-02T07:02:53;7.40;96.00
4376;DHT22;2202;50.866;12.750;2024-03-02T07:05:20;7.40;95.90
4376;DHT22;2202;50.866;12.750;2024-03-02T07:07:48;7.40;95.90
4376;DHT22;2202;50.866;12.750;2024-03-02T07:10:15;7.40;96.00
4376;DHT22;2202;50.866;12.750;2024-03-02T07:12:42;7.40;95.90
4376;DHT22;2202;50.866;12.750;2024-03-02T07:15:12;7.40;96.20
4376;DHT22;2202;50.866;12.750;2024-03-02T07:17:54;7.50;96.10
4376;DHT22;2202;50.866;12.750;2024-03-02T07:20:21;7.70;96.20
4376;DHT22;2202;50.866;12.750;2024-03-02T07:22:49;7.90;96.50
4376;DHT22;2202;50.866;12.750;2024-03-02T07:25:16;8.10;95.80
4376;DHT22;2202;50.866;12.750;2024-03-02T07:27:43;8.10;95.10
4376;DHT22;2202;50.866;12.750;2024-03-02T07:30:14;8.20;94.60
4376;DHT22;2202;50.866;12.750;2024-03-02T07:32:42;8.30;94.10
4376;DHT22;2202;50.866;12.750;2024-03-02T07:35:11;8.30;94.20
4376;DHT22;2202;50.866;12.750;2024-03-02T07:37:40;8.40;94.00
4376;DHT22;2202;50.866;12.750;2024-03-02T07:40:09;8.40;94.00
4376;DHT22;2202;50.866;12.750;2024-03-02T07:42:37;8.40;94.00
4376;DHT22;2202;50.866;12.750;2024-03-02T07:45:06;8.50;93.90
4376;DHT22;2202;50.866;12.750;2024-03-02T07:47:35;8.50;93.70
4376;DHT22;2202;50.866;12.750;2024-03-02T07:50:03;8.50;93.40
4376;DHT22;2202;50.866;12.750;2024-03-02T07:52:31;8.50;93.50
4376;DHT22;2202;50.866;12.750;2024-03-02T07:54:59;8.50;93.40
4376;DHT22;2202;50.866;12.750;2024-03-02T07:57:26;8.40;93.00
4376;DHT22;2202;50.866;12.750;2024-03-02T07:59:53;8.40;93.20
4376;DHT22;2202;50.866;12.750;2024-03-02T08:02:20;8.40;93.20
4376;DHT22;2202;50.866;12.750;2024-03-02T08:04:49;8.40;93.30
4376;DHT22;2202;50.866;12.750;2024-03-02T08:07:16;8.40;93.60
4376;DHT22;2202;50.866;12.750;2024-03-02T08:09:43;8.50;93.30
4376;DHT22;2202;50.866;12.750;2024-03-02T08:12:11;8.50;93.40
4376;DHT22;2202;50.866;12.750;2024-03-02T08:14:38;8.50;93.10
4376;DHT22;2202;50.866;12.750;2024-03-02T08:17:06;8.60;92.80
4376;DHT22;2202;50.866;12.750;2024-03-02T08:19:36;8.60;92.90
4376;DHT22;2202;50.866;12.750;2024-03-02T08:22:05;8.60;93.10
4376;DHT22;2202;50.866;12.750;2024-03-02T08:24:32;8.70;92.70
4376;DHT22;2202;50.866;12.750;2024-03-02T08:27:02;8.70;92.70
4376;DHT22;2202;50.866;12.750;2024-03-02T08:29:30;8.80;92.70
4376;DHT22;2202;50.866;12.750;2024-03-02T08:31:57;8.80;92.50
4376;DHT22;2202;50.866;12.750;2024-03-02T08:34:24;8.90;92.10
4376;DHT22;2202;50.866;12.750;2024-03-02T08:36:51;8.90;91.80
4376;DHT22;2202;50.866;12.750;2024-03-02T08:39:20;8.90;91.70
4376;DHT22;2202;50.866;12.750;2024-03-02T08:41:47;8.90;91.50
4376;DHT22;2202;50.866;12.750;2024-03-02T08:44:15;8.90;91.40
4376;DHT22;2202;50.866;12.750;2024-03-02T08:46:43;8.90;91.50
4376;DHT22;2202;50.866;12.750;2024-03-02T08:49:10;8.90;91.60
4376;DHT22;2202;50.866;12.750;2024-03-02T08:51:37;8.90;91.70
4376;DHT22;2202;50.866;12.750;2024-03-02T08:54:05;9.00;91.50
4376;DHT22;2202;50.866;12.750;2024-03-02T08:56:33;9.10;91.30
4376;DHT22;2202;50.866;12.750;2024-03-02T08:59:00;9.00;91.30
4376;DHT22;2202;50.866;12.750;2024-03-02T09:01:27;9.10;91.30
4376;DHT22;2202;50.866;12.750;2024-03-02T09:03:54;9.10;91.10
4376;DHT22;2202;50.866;12.750;2024-03-02T09:06:22;9.10;91.10
4376;DHT22;2202;50.866;12.750;2024-03-02T09:08:49;9.10;91.10
4376;DHT22;2202;50.866;12.750;2024-03-02T09:11:17;9.10;91.10
4376;DHT22;2202;50.866;12.750;2024-03-02T09:13:46;9.10;91.20
4376;DHT22;2202;50.866;12.750;2024-03-02T09:16:13;9.10;91.20
4376;DHT22;2202;50.866;12.750;2024-03-02T09:18:40;9.10;91.30
4376;DHT22;2202;50.866;12.750;2024-03-02T09:21:07;9.20;91.10
4376;DHT22;2202;50.866;12.750;2024-03-02T09:23:35;9.20;91.10
4376;DHT22;2202;50.866;12.750;2024-03-02T09:26:03;9.20;91.40
4376;DHT22;2202;50.866;12.750;2024-03-02T09:28:30;9.30;90.80
4376;DHT22;2202;50.866;12.750;2024-03-02T09:31:00;9.30;91.00
4376;DHT22;2202;50.866;12.750;2024-03-02T09:33:27;9.30;91.00
4376;DHT22;2202;50.866;12.750;2024-03-02T09:35:55;9.40;91.00
4376;DHT22;2202;50.866;12.750;2024-03-02T09:38:22;9.40;90.80
4376;DHT22;2202;50.866;12.750;2024-03-02T09:40:49;9.30;91.10
4376;DHT22;2202;50.866;12.750;2024-03-02T09:43:16;9.40;91.20
4376;DHT22;2202;50.866;12.750;2024-03-02T09:45:45;9.50;90.90
4376;DHT22;2202;50.866;12.750;2024-03-02T09:48:14;9.50;90.60
4376;DHT22;2202;50.866;12.750;2024-03-02T09:50:44;9.50;90.90
4376;DHT22;2202;50.866;12.750;2024-03-02T09:53:12;9.50;90.70
4376;DHT22;2202;50.866;12.750;2024-03-02T09:55:40;9.60;90.80
4376;DHT22;2202;50.866;12.750;2024-03-02T09:58:09;9.70;91.00
4376;DHT22;2202;50.866;12.750;2024-03-02T10:00:37;9.90;90.60
4376;DHT22;2202;50.866;12.750;2024-03-02T10:03:05;10.10;89.40
4376;DHT22;2202;50.866;12.750;2024-03-02T10:05:40;10.00;89.00
4376;DHT22;2202;50.866;12.750;2024-03-02T10:08:07;10.20;89.40
4376;DHT22;2202;50.866;12.750;2024-03-02T10:10:41;10.30;88.40
4376;DHT22;2202;50.866;12.750;2024-03-02T10:13:10;10.50;89.20
4376;DHT22;2202;50.866;12.750;2024-03-02T10:15:38;10.70;87.00
4376;DHT22;2202;50.866;12.750;2024-03-02T10:18:09;10.80;85.20
4376;DHT22;2202;50.866;12.750;2024-03-02T10:20:39;10.90;82.00
4376;DHT22;2202;50.866;12.750;2024-03-02T10:23:14;11.10;82.20
4376;DHT22;2202;50.866;12.750;2024-03-02T10:25:42;11.10;80.60
4376;DHT22;2202;50.866;12.750;2024-03-02T10:28:11;11.10;80.40
4376;DHT22;2202;50.866;12.750;2024-03-02T10:30:38;11.20;78.60
4376;DHT22;2202;50.866;12.750;2024-03-02T10:33:06;11.20;78.80
4376;DHT22;2202;50.866;12.750;2024-03-02T10:35:34;11.30;78.60
4376;DHT22;2202;50.866;12.750;2024-03-02T10:38:05;11.40;77.80
4376;DHT22;2202;50.866;12.750;2024-03-02T10:40:33;11.50;79.00
4376;DHT22;2202;50.866;12.750;2024-03-02T10:43:01;11.60;79.60
4376;DHT22;2202;50.866;12.750;2024-03-02T10:45:31;11.80;78.60
4376;DHT22;2202;50.866;12.750;2024-03-02T10:47:58;12.00;79.00
4376;DHT22;2202;50.866;12.750;2024-03-02T10:50:27;12.10;76.60
4376;DHT22;2202;50.866;12.750;2024-03-02T10:52:54;12.30;75.80
4376;DHT22;2202;50.866;12.750;2024-03-02T10:55:23;12.30;74.80
4376;DHT22;2202;50.866;12.750;2024-03-02T10:57:52;12.50;72.20
4376;DHT22;2202;50.866;12.750;2024-03-02T11:00:20;12.60;73.80
4376;DHT22;2202;50.866;12.750;2024-03-02T11:02:55;12.70;72.40
4376;DHT22;2202;50.866;12.750;2024-03-02T11:05:27;12.70;71.80
4376;DHT22;2202;50.866;12.750;2024-03-02T11:08:00;12.70;70.20
4376;DHT22;2202;50.866;12.750;2024-03-02T11:10:34;12.80;70.40
4376;DHT22;2202;50.866;12.750;2024-03-02T11:13:05;12.90;70.00
4376;DHT22;2202;50.866;12.750;2024-03-02T11:15:35;12.90;68.60
4376;DHT22;2202;50.866;12.750;2024-03-02T11:18:04;12.70;70.20
4376;DHT22;2202;50.866;12.750;2024-03-02T11:20:36;12.70;69.40
4376;DHT22;2202;50.866;12.750;2024-03-02T11:23:08;12.80;67.20
4376;DHT22;2202;50.866;12.750;2024-03-02T11:25:36;12.80;69.60
4376;DHT22;2202;50.866;12.750;2024-03-02T11:28:05;13.10;68.00
4376;DHT22;2202;50.866;12.750;2024-03-02T11:30:51;13.50;66.00
4376;DHT22;2202;50.866;12.750;2024-03-02T11:33:25;13.70;64.20
4376;DHT22;2202;50.866;12.750;2024-03-02T11:35:57;13.70;62.60
4376;DHT22;2202;50.866;12.750;2024-03-02T11:38:32;13.60;65.40
4376;DHT22;2202;50.866;12.750;2024-03-02T11:41:02;13.80;63.80
4376;DHT22;2202;50.866;12.750;2024-03-02T11:43:30;13.80;62.00
4376;DHT22;2202;50.866;12.750;2024-03-02T11:45:59;13.80;62.80
4376;DHT22;2202;50.866;12.750;2024-03-02T11:48:26;13.80;62.00
4376;DHT22;2202;50.866;12.750;2024-03-02T11:50:53;13.50;62.20
4376;DHT22;2202;50.866;12.750;2024-03-02T11:53:22;13.60;63.40
4376;DHT22;2202;50.866;12.750;2024-03-02T11:55:49;13.50;62.80
4376;DHT22;2202;50.866;12.750;2024-03-02T11:58:18;13.50;63.20
4376;DHT22;2202;50.866;12.750;2024-03-02T12:00:46;13.60;65.80
4376;DHT22;2202;50.866;12.750;2024-03-02T12:03:13;13.50;63.40
4376;DHT22;2202;50.866;12.750;2024-03-02T12:05:41;13.40;64.80
4376;DHT22;2202;50.866;12.750;2024-03-02T12:08:08;13.30;65.80
4376;DHT22;2202;50.866;12.750;2024-03-02T12:10:36;13.20;65.80
4376;DHT22;2202;50.866;12.750;2024-03-02T12:13:05;13.00;68.20
4376;DHT22;2202;50.866;12.750;2024-03-02T12:15:35;13.10;68.40
4376;DHT22;2202;50.866;12.750;2024-03-02T12:18:04;13.00;68.40
4376;DHT22;2202;50.866;12.750;2024-03-02T12:20:33;13.20;68.80
4376;DHT22;2202;50.866;12.750;2024-03-02T12:23:01;13.20;66.80
4376;DHT22;2202;50.866;12.750;2024-03-02T12:25:28;13.20;67.00
4376;DHT22;2202;50.866;12.750;2024-03-02T12:27:57;13.20;67.20
4376;DHT22;2202;50.866;12.750;2024-03-02T12:30:27;13.20;65.60
4376;DHT22;2202;50.866;12.750;2024-03-02T12:32:57;13.30;62.80
4376;DHT22;2202;50.866;12.750;2024-03-02T12:35:25;13.30;63.60
4376;DHT22;2202;50.866;12.750;2024-03-02T12:37:53;13.20;61.80
4376;DHT22;2202;50.866;12.750;2024-03-02T12:40:21;13.20;62.80
4376;DHT22;2202;50.866;12.750;2024-03-02T12:42:49;13.30;61.80
4376;DHT22;2202;50.866;12.750;2024-03-02T12:45:17;13.20;60.20
4376;DHT22;2202;50.866;12.750;2024-03-02T12:47:49;13.30;61.80
4376;DHT22;2202;50.866;12.750;2024-03-02T12:50:18;13.50;63.20
4376;DHT22;2202;50.866;12.750;2024-03-02T12:52:51;13.70;62.40
4376;DHT22;2202;50.866;12.750;2024-03-02T12:55:20;13.80;61.60
4376;DHT22;2202;50.866;12.750;2024-03-02T12:57:47;14.00;61.40
4376;DHT22;2202;50.866;12.750;2024-03-02T13:00:18;14.10;61.00
4376;DHT22;2202;50.866;12.750;2024-03-02T13:02:46;14.10;61.20
4376;DHT22;2202;50.866;12.750;2024-03-02T13:05:13;14.10;62.60
4376;DHT22;2202;50.866;12.750;2024-03-02T13:07:42;14.10;64.60
4376;DHT22;2202;50.866;12.750;2024-03-02T13:10:10;14.20;63.40
4376;DHT22;2202;50.866;12.750;2024-03-02T13:12:38;14.30;61.00
4376;DHT22;2202;50.866;12.750;2024-03-02T13:15:06;14.30;60.20
4376;DHT22;2202;50.866;12.750;2024-03-02T13:17:34;14.30;62.60
4376;DHT22;2202;50.866;12.750;2024-03-02T13:20:03;14.30;62.00
4376;DHT22;2202;50.866;12.750;2024-03-02T13:22:33;14.40;62.60
4376;DHT22;2202;50.866;12.750;2024-03-02T13:25:02;14.40;60.20
4376;DHT22;2202;50.866;12.750;2024-03-02T13:27:29;14.30;60.60
4376;DHT22;2202;50.866;12.750;2024-03-02T13:29:57;14.50;59.20
4376;DHT22;2202;50.866;12.750;2024-03-02T13:32:24;14.60;60.10
4376;DHT22;2202;50.866;12.750;2024-03-02T13:34:51;14.70;60.20
4376;DHT22;2202;50.866;12.750;2024-03-02T13:37:19;14.90;58.30
4376;DHT22;2202;50.866;12.750;2024-03-02T13:39:46;15.00;58.70
4376;DHT22;2202;50.866;12.750;2024-03-02T13:42:14;14.90;57.40
4376;DHT22;2202;50.866;12.750;2024-03-02T13:44:43;15.00;57.30
4376;DHT22;2202;50.866;12.750;2024-03-02T13:47:12;15.10;59.40
4376;DHT22;2202;50.866;12.750;2024-03-02T13:49:39;15.00;56.70
4376;DHT22;2202;50.866;12.750;2024-03-02T13:52:09;15.10;58.00
4376;DHT22;2202;50.866;12.750;2024-03-02T13:54:38;15.10;56.40
4376;DHT22;2202;50.866;12.750;2024-03-02T13:57:05;15.10;57.10
4376;DHT22;2202;50.866;12.750;2024-03-02T13:59:34;15.20;56.00
4376;DHT22;2202;50.866;12.750;2024-03-02T14:02:02;15.20;56.20
4376;DHT22;2202;50.866;12.750;2024-03-02T14:04:30;15.30;57.10
4376;DHT22;2202;50.866;12.750;2024-03-02T14:06:58;15.30;56.70
4376;DHT22;2202;50.866;12.750;2024-03-02T14:09:25;15.00;56.70
4376;DHT22;2202;50.866;12.750;2024-03-02T14:11:53;15.00;55.90
4376;DHT22;2202;50.866;12.750;2024-03-02T14:14:19;15.00;56.70
4376;DHT22;2202;50.866;12.750;2024-03-02T14:16:48;15.00;54.30
4376;DHT22;2202;50.866;12.750;2024-03-02T14:19:15;14.80;59.00
4376;DHT22;2202;50.866;12.750;2024-03-02T14:21:42;14.80;56.20
4376;DHT22;2202;50.866;12.750;2024-03-02T14:24:09;14.80;56.20
4376;DHT22;2202;50.866;12.750;2024-03-02T14:26:36;14.90;55.30
4376;DHT22;2202;50.866;12.750;2024-03-02T14:29:04;15.00;54.60
4376;DHT22;2202;50.866;12.750;2024-03-02T14:31:31;15.10;53.90
4376;DHT22;2202;50.866;12.750;2024-03-02T14:33:59;15.00;54.10
4376;DHT22;2202;50.866;12.750;2024-03-02T14:36:26;14.90;54.60
4376;DHT22;2202;50.866;12.750;2024-03-02T14:38:54;14.90;54.60
4376;DHT22;2202;50.866;12.750;2024-03-02T14:41:21;15.10;55.70
4376;DHT22;2202;50.866;12.750;2024-03-02T14:43:49;15.20;54.80
4376;DHT22;2202;50.866;12.750;2024-03-02T14:46:17;15.00;54.60
4376;DHT22;2202;50.866;12.750;2024-03-02T14:48:44;15.00;56.20
4376;DHT22;2202;50.866;12.750;2024-03-02T14:51:13;15.00;56.20
4376;DHT22;2202;50.866;12.750;2024-03-02T14:53:40;15.00;56.00
4376;DHT22;2202;50.866;12.750;2024-03-02T14:56:07;15.10;56.60
4376;DHT22;2202;50.866;12.750;2024-03-02T14:58:35;15.00;56.00
4376;DHT22;2202;50.866;12.750;2024-03-02T15:01:03;15.10;57.10
4376;DHT22;2202;50.866;12.750;2024-03-02T15:03:31;15.10;57.40
4376;DHT22;2202;50.866;12.750;2024-03-02T15:05:58;15.10;56.70
4376;DHT22;2202;50.866;12.750;2024-03-02T15:08:26;15.10;58.20
4376;DHT22;2202;50.866;12.750;2024-03-02T15:10:53;15.10;58.20
4376;DHT22;2202;50.866;12.750;2024-03-02T15:13:22;14.80;58.20
4376;DHT22;2202;50.866;12.750;2024-03-02T15:15:50;14.70;59.90
4376;DHT22;2202;50.866;12.750;2024-03-02T15:18:17;14.70;59.80
4376;DHT22;2202;50.866;12.750;2024-03-02T15:20:44;14.60;61.00
4376;DHT22;2202;50.866;12.750;2024-03-02T15:23:11;14.40;61.00
4376;DHT22;2202;50.866;12.750;2024-03-02T15:25:39;14.40;61.40
4376;DHT22;2202;50.866;12.750;2024-03-02T15:28:06;14.30;61.00
4376;DHT22;2202;50.866;12.750;2024-03-02T15:30:33;14.20;61.60
4376;DHT22;2202;50.866;12.750;2024-03-02T15:33:00;14.10;62.00
4376;DHT22;2202;50.866;12.750;2024-03-02T15:35:27;14.00;63.40
4376;DHT22;2202;50.866;12.750;2024-03-02T15:37:54;13.80;64.80
4376;DHT22;2202;50.866;12.750;2024-03-02T15:40:21;13.80;65.00
4376;DHT22;2202;50.866;12.750;2024-03-02T15:42:50;13.80;65.00
4376;DHT22;2202;50.866;12.750;2024-03-02T15:45:17;13.70;65.00
4376;DHT22;2202;50.866;12.750;2024-03-02T15:47:44;13.40;66.40
4376;DHT22;2202;50.866;12.750;2024-03-02T15:50:11;13.30;67.20
4376;DHT22;2202;50.866;12.750;2024-03-02T15:52:38;13.30;67.60
4376;DHT22;2202;50.866;12.750;2024-03-02T15:55:05;13.30;67.40
4376;DHT22;2202;50.866;12.750;2024-03-02T15:57:32;13.20;67.60
4376;DHT22;2202;50.866;12.750;2024-03-02T16:00:01;12.90;68.20